sensor_id;sensor_type;location;lat;lon;timestamp;P1;durP1;ratioP1;P2;durP2;ratioP2
13568;SDS011;6856;51.460;7.158;2022-10-16T00:01:36;1.63;;;1.40;;
13568;SDS011;6856;51.460;7.158;2022-10-16T00:04:10;2.40;;;1.37;;
13568;SDS011;6856;51.460;7.158;2022-10-16T00:06:44;2.00;;;1.30;;
13568;SDS011;6856;51.460;7.158;2022-10-16T00:09:17;2.47;;;1.33;;
13568;SDS011;6856;51.460;7.158;2022-10-16T00:11:53;1.77;;;1.07;;
13568;SDS011;6856;51.460;7.158;2022-10-16T00:14:26;1.27;;;1.17;;
13568;SDS011;6856;51.460;7.158;2022-10-16T00:17:02;3.07;;;1.50;;
13568;SDS011;6856;51.460;7.158;2022-10-16T00:19:37;1.73;;;1.30;;
13568;SDS011;6856;51.460;7.158;2022-10-16T00:22:10;2.03;;;1.20;;
13568;SDS011;6856;51.460;7.158;2022-10-16T00:24:44;2.13;;;1.37;;
13568;SDS011;6856;51.460;7.158;2022-10-16T00:27:19;1.60;;;1.20;;
13568;SDS011;6856;51.460;7.158;2022-10-16T00:29:52;2.27;;;1.10;;
13568;SDS011;6856;51.460;7.158;2022-10-16T00:32:26;1.63;;;1.17;;
13568;SDS011;6856;51.460;7.158;2022-10-16T00:35:00;2.00;;;1.33;;
13568;SDS011;6856;51.460;7.158;2022-10-16T00:37:35;1.87;;;1.07;;
13568;SDS011;6856;51.460;7.158;2022-10-16T00:40:09;2.23;;;1.37;;
13568;SDS011;6856;51.460;7.158;2022-10-16T00:42:44;2.60;;;1.27;;
13568;SDS011;6856;51.460;7.158;2022-10-16T00:45:18;1.90;;;1.03;;
13568;SDS011;6856;51.460;7.158;2022-10-16T00:47:52;1.30;;;1.20;;
13568;SDS011;6856;51.460;7.158;2022-10-16T00:50:30;1.40;;;1.17;;
13568;SDS011;6856;51.460;7.158;2022-10-16T00:53:05;2.10;;;1.20;;
13568;SDS011;6856;51.460;7.158;2022-10-16T00:55:39;1.17;;;1.07;;
13568;SDS011;6856;51.460;7.158;2022-10-16T00:58:14;1.30;;;1.00;;
13568;SDS011;6856;51.460;7.158;2022-10-16T01:00:48;2.30;;;1.30;;
13568;SDS011;6856;51.460;7.158;2022-10-16T01:03:22;2.53;;;1.20;;
13568;SDS011;6856;51.460;7.158;2022-10-16T01:06:04;1.37;;;1.00;;
13568;SDS011;6856;51.460;7.158;2022-10-16T01:08:54;1.63;;;0.90;;
13568;SDS011;6856;51.460;7.158;2022-10-16T01:11:45;1.47;;;1.00;;
13568;SDS011;6856;51.460;7.158;2022-10-16T01:14:37;1.27;;;1.07;;
13568;SDS011;6856;51.460;7.158;2022-10-16T01:17:21;1.50;;;0.90;;
13568;SDS011;6856;51.460;7.158;2022-10-16T01:20:03;1.63;;;1.10;;
13568;SDS011;6856;51.460;7.158;2022-10-16T01:22:48;2.03;;;0.93;;
13568;SDS011;6856;51.460;7.158;2022-10-16T01:25:49;1.37;;;1.00;;
13568;SDS011;6856;51.460;7.158;2022-10-16T01:28:43;2.27;;;1.20;;
13568;SDS011;6856;51.460;7.158;2022-10-16T01:31:25;1.30;;;0.80;;
13568;SDS011;6856;51.460;7.158;2022-10-16T01:34:05;0.87;;;0.77;;
13568;SDS011;6856;51.460;7.158;2022-10-16T01:36:47;0.83;;;0.83;;
13568;SDS011;6856;51.460;7.158;2022-10-16T01:39:28;2.20;;;1.10;;
13568;SDS011;6856;51.460;7.158;2022-10-16T01:42:15;1.53;;;0.80;;
13568;SDS011;6856;51.460;7.158;2022-10-16T01:44:55;2.03;;;1.00;;
13568;SDS011;6856;51.460;7.158;2022-10-16T01:47:31;2.33;;;0.90;;
13568;SDS011;6856;51.460;7.158;2022-10-16T01:50:08;1.60;;;1.20;;
13568;SDS011;6856;51.460;7.158;2022-10-16T01:52:43;1.20;;;1.03;;
13568;SDS011;6856;51.460;7.158;2022-10-16T01:55:22;1.10;;;1.00;;
13568;SDS011;6856;51.460;7.158;2022-10-16T01:58:02;1.43;;;0.97;;
13568;SDS011;6856;51.460;7.158;2022-10-16T02:00:42;2.53;;;1.17;;
13568;SDS011;6856;51.460;7.158;2022-10-16T02:03:19;1.30;;;0.80;;
13568;SDS011;6856;51.460;7.158;2022-10-16T02:05:54;1.57;;;0.87;;
13568;SDS011;6856;51.460;7.158;2022-10-16T02:08:31;2.30;;;0.90;;
13568;SDS011;6856;51.460;7.158;2022-10-16T02:11:05;1.03;;;0.90;;
13568;SDS011;6856;51.460;7.158;2022-10-16T02:13:41;0.80;;;0.80;;
13568;SDS011;6856;51.460;7.158;2022-10-16T02:16:20;1.47;;;1.17;;
13568;SDS011;6856;51.460;7.158;2022-10-16T02:18:54;2.20;;;1.23;;
13568;SDS011;6856;51.460;7.158;2022-10-16T02:21:28;1.93;;;1.10;;
13568;SDS011;6856;51.460;7.158;2022-10-16T02:24:13;1.60;;;1.20;;
13568;SDS011;6856;51.460;7.158;2022-10-16T02:27:00;2.00;;;0.93;;
13568;SDS011;6856;51.460;7.158;2022-10-16T02:29:40;1.93;;;1.17;;
13568;SDS011;6856;51.460;7.158;2022-10-16T02:32:23;1.70;;;1.10;;
13568;SDS011;6856;51.460;7.158;2022-10-16T02:35:03;1.33;;;1.00;;
13568;SDS011;6856;51.460;7.158;2022-10-16T02:37:39;2.30;;;1.10;;
13568;SDS011;6856;51.460;7.158;2022-10-16T02:40:15;1.10;;;1.00;;
13568;SDS011;6856;51.460;7.158;2022-10-16T02:42:55;1.70;;;1.13;;
13568;SDS011;6856;51.460;7.158;2022-10-16T02:45:28;0.93;;;0.80;;
13568;SDS011;6856;51.460;7.158;2022-10-16T02:48:05;2.03;;;1.20;;
13568;SDS011;6856;51.460;7.158;2022-10-16T02:50:39;1.90;;;1.00;;
13568;SDS011;6856;51.460;7.158;2022-10-16T02:53:13;1.20;;;0.80;;
13568;SDS011;6856;51.460;7.158;2022-10-16T02:55:46;3.10;;;1.23;;
13568;SDS011;6856;51.460;7.158;2022-10-16T02:58:24;0.97;;;0.80;;
13568;SDS011;6856;51.460;7.158;2022-10-16T03:01:01;1.53;;;1.10;;
13568;SDS011;6856;51.460;7.158;2022-10-16T03:03:35;1.70;;;0.93;;
13568;SDS011;6856;51.460;7.158;2022-10-16T03:06:09;2.00;;;0.90;;
13568;SDS011;6856;51.460;7.158;2022-10-16T03:08:44;0.87;;;0.87;;
13568;SDS011;6856;51.460;7.158;2022-10-16T03:11:17;0.80;;;0.70;;
13568;SDS011;6856;51.460;7.158;2022-10-16T03:13:52;1.40;;;1.00;;
13568;SDS011;6856;51.460;7.158;2022-10-16T03:16:26;2.03;;;0.97;;
13568;SDS011;6856;51.460;7.158;2022-10-16T03:19:01;1.40;;;1.00;;
13568;SDS011;6856;51.460;7.158;2022-10-16T03:21:34;2.33;;;0.93;;
13568;SDS011;6856;51.460;7.158;2022-10-16T03:24:07;0.93;;;0.87;;
13568;SDS011;6856;51.460;7.158;2022-10-16T03:26:41;1.43;;;0.77;;
13568;SDS011;6856;51.460;7.158;2022-10-16T03:29:14;0.93;;;0.70;;
13568;SDS011;6856;51.460;7.158;2022-10-16T03:31:48;0.80;;;0.67;;
13568;SDS011;6856;51.460;7.158;2022-10-16T03:34:23;2.03;;;0.90;;
13568;SDS011;6856;51.460;7.158;2022-10-16T03:36:56;0.97;;;0.70;;
13568;SDS011;6856;51.460;7.158;2022-10-16T03:39:30;1.67;;;0.80;;
13568;SDS011;6856;51.460;7.158;2022-10-16T03:42:04;1.57;;;0.90;;
13568;SDS011;6856;51.460;7.158;2022-10-16T03:44:37;1.00;;;0.73;;
13568;SDS011;6856;51.460;7.158;2022-10-16T03:47:11;2.43;;;0.80;;
13568;SDS011;6856;51.460;7.158;2022-10-16T03:49:46;8.73;;;0.80;;
13568;SDS011;6856;51.460;7.158;2022-10-16T03:52:19;1.23;;;0.87;;
13568;SDS011;6856;51.460;7.158;2022-10-16T03:54:53;1.23;;;0.90;;
13568;SDS011;6856;51.460;7.158;2022-10-16T03:57:27;1.67;;;0.77;;
13568;SDS011;6856;51.460;7.158;2022-10-16T04:00:00;1.03;;;0.90;;
13568;SDS011;6856;51.460;7.158;2022-10-16T04:02:38;2.37;;;0.93;;
13568;SDS011;6856;51.460;7.158;2022-10-16T04:05:13;0.70;;;0.70;;
13568;SDS011;6856;51.460;7.158;2022-10-16T04:07:48;0.83;;;0.70;;
13568;SDS011;6856;51.460;7.158;2022-10-16T04:10:21;0.70;;;0.70;;
13568;SDS011;6856;51.460;7.158;2022-10-16T04:12:54;0.93;;;0.80;;
13568;SDS011;6856;51.460;7.158;2022-10-16T04:15:28;1.00;;;0.80;;
13568;SDS011;6856;51.460;7.158;2022-10-16T04:18:02;1.77;;;0.90;;
13568;SDS011;6856;51.460;7.158;2022-10-16T04:20:37;3.67;;;0.70;;
13568;SDS011;6856;51.460;7.158;2022-10-16T04:23:11;1.33;;;0.77;;
13568;SDS011;6856;51.460;7.158;2022-10-16T04:25:44;0.80;;;0.80;;
13568;SDS011;6856;51.460;7.158;2022-10-16T04:28:18;0.97;;;0.80;;
13568;SDS011;6856;51.460;7.158;2022-10-16T04:30:51;0.70;;;0.70;;
13568;SDS011;6856;51.460;7.158;2022-10-16T04:33:25;0.60;;;0.60;;
13568;SDS011;6856;51.460;7.158;2022-10-16T04:36:00;0.70;;;0.60;;
13568;SDS011;6856;51.460;7.158;2022-10-16T04:38:35;1.53;;;0.80;;
13568;SDS011;6856;51.460;7.158;2022-10-16T04:41:10;0.60;;;0.60;;
13568;SDS011;6856;51.460;7.158;2022-10-16T04:43:45;2.20;;;0.90;;
13568;SDS011;6856;51.460;7.158;2022-10-16T04:46:18;1.43;;;0.80;;
13568;SDS011;6856;51.460;7.158;2022-10-16T04:48:52;1.03;;;0.80;;
13568;SDS011;6856;51.460;7.158;2022-10-16T04:51:26;1.50;;;0.90;;
13568;SDS011;6856;51.460;7.158;2022-10-16T04:53:59;0.90;;;0.70;;
13568;SDS011;6856;51.460;7.158;2022-10-16T04:56:33;0.90;;;0.60;;
13568;SDS011;6856;51.460;7.158;2022-10-16T04:59:14;3.40;;;0.70;;
13568;SDS011;6856;51.460;7.158;2022-10-16T05:01:48;0.60;;;0.60;;
13568;SDS011;6856;51.460;7.158;2022-10-16T05:04:23;2.40;;;0.93;;
13568;SDS011;6856;51.460;7.158;2022-10-16T05:06:58;1.00;;;0.87;;
13568;SDS011;6856;51.460;7.158;2022-10-16T05:09:32;0.90;;;0.80;;
13568;SDS011;6856;51.460;7.158;2022-10-16T05:12:06;1.60;;;0.97;;
13568;SDS011;6856;51.460;7.158;2022-10-16T05:14:39;1.47;;;0.90;;
13568;SDS011;6856;51.460;7.158;2022-10-16T05:17:13;0.60;;;0.60;;
13568;SDS011;6856;51.460;7.158;2022-10-16T05:19:46;0.73;;;0.70;;
13568;SDS011;6856;51.460;7.158;2022-10-16T05:22:21;2.90;;;1.00;;
13568;SDS011;6856;51.460;7.158;2022-10-16T05:24:56;1.03;;;0.80;;
13568;SDS011;6856;51.460;7.158;2022-10-16T05:27:30;2.50;;;0.80;;
13568;SDS011;6856;51.460;7.158;2022-10-16T05:30:06;1.90;;;0.70;;
13568;SDS011;6856;51.460;7.158;2022-10-16T05:32:45;2.00;;;0.80;;
13568;SDS011;6856;51.460;7.158;2022-10-16T05:35:20;1.97;;;0.97;;
13568;SDS011;6856;51.460;7.158;2022-10-16T05:37:55;2.03;;;0.90;;
13568;SDS011;6856;51.460;7.158;2022-10-16T05:40:30;1.23;;;0.70;;
13568;SDS011;6856;51.460;7.158;2022-10-16T05:43:03;2.40;;;0.80;;
13568;SDS011;6856;51.460;7.158;2022-10-16T05:45:37;1.13;;;0.80;;
13568;SDS011;6856;51.460;7.158;2022-10-16T05:48:10;3.03;;;0.93;;
13568;SDS011;6856;51.460;7.158;2022-10-16T05:50:44;1.17;;;0.90;;
13568;SDS011;6856;51.460;7.158;2022-10-16T05:53:19;1.13;;;0.73;;
13568;SDS011;6856;51.460;7.158;2022-10-16T05:55:57;1.13;;;1.00;;
13568;SDS011;6856;51.460;7.158;2022-10-16T05:58:31;1.30;;;0.80;;
13568;SDS011;6856;51.460;7.158;2022-10-16T06:01:09;1.53;;;0.97;;
13568;SDS011;6856;51.460;7.158;2022-10-16T06:03:45;1.60;;;1.07;;
13568;SDS011;6856;51.460;7.158;2022-10-16T06:06:20;1.30;;;0.90;;
13568;SDS011;6856;51.460;7.158;2022-10-16T06:08:58;2.30;;;0.80;;
13568;SDS011;6856;51.460;7.158;2022-10-16T06:11:32;0.80;;;0.70;;
13568;SDS011;6856;51.460;7.158;2022-10-16T06:14:08;0.80;;;0.80;;
13568;SDS011;6856;51.460;7.158;2022-10-16T06:16:42;1.40;;;0.87;;
13568;SDS011;6856;51.460;7.158;2022-10-16T06:19:15;1.93;;;0.80;;
13568;SDS011;6856;51.460;7.158;2022-10-16T06:21:49;1.20;;;0.80;;
13568;SDS011;6856;51.460;7.158;2022-10-16T06:24:24;1.43;;;0.90;;
13568;SDS011;6856;51.460;7.158;2022-10-16T06:26:58;1.50;;;1.00;;
13568;SDS011;6856;51.460;7.158;2022-10-16T06:29:31;2.23;;;0.97;;
13568;SDS011;6856;51.460;7.158;2022-10-16T06:35:06;1.33;;;0.77;;
13568;SDS011;6856;51.460;7.158;2022-10-16T06:37:40;2.50;;;1.20;;
13568;SDS011;6856;51.460;7.158;2022-10-16T06:40:15;1.23;;;1.00;;
13568;SDS011;6856;51.460;7.158;2022-10-16T06:42:49;1.70;;;0.87;;
13568;SDS011;6856;51.460;7.158;2022-10-16T06:45:23;1.00;;;0.90;;
13568;SDS011;6856;51.460;7.158;2022-10-16T06:48:00;1.07;;;0.87;;
13568;SDS011;6856;51.460;7.158;2022-10-16T06:50:33;0.77;;;0.77;;
13568;SDS011;6856;51.460;7.158;2022-10-16T06:53:06;1.93;;;1.10;;
13568;SDS011;6856;51.460;7.158;2022-10-16T06:55:41;1.53;;;1.00;;
13568;SDS011;6856;51.460;7.158;2022-10-16T06:58:15;0.90;;;0.90;;
13568;SDS011;6856;51.460;7.158;2022-10-16T07:00:49;1.40;;;0.90;;
13568;SDS011;6856;51.460;7.158;2022-10-16T07:03:28;2.40;;;0.80;;
13568;SDS011;6856;51.460;7.158;2022-10-16T07:06:02;2.67;;;1.10;;
13568;SDS011;6856;51.460;7.158;2022-10-16T07:08:39;2.10;;;0.90;;
13568;SDS011;6856;51.460;7.158;2022-10-16T07:11:17;2.47;;;1.20;;
13568;SDS011;6856;51.460;7.158;2022-10-16T07:13:52;3.27;;;0.97;;
13568;SDS011;6856;51.460;7.158;2022-10-16T07:16:27;1.70;;;1.10;;
13568;SDS011;6856;51.460;7.158;2022-10-16T07:19:03;1.23;;;0.97;;
13568;SDS011;6856;51.460;7.158;2022-10-16T07:21:38;2.77;;;1.20;;
13568;SDS011;6856;51.460;7.158;2022-10-16T07:24:14;1.10;;;1.00;;
13568;SDS011;6856;51.460;7.158;2022-10-16T07:26:50;1.17;;;1.07;;
13568;SDS011;6856;51.460;7.158;2022-10-16T07:29:24;3.37;;;1.10;;
13568;SDS011;6856;51.460;7.158;2022-10-16T07:31:57;2.10;;;1.43;;
13568;SDS011;6856;51.460;7.158;2022-10-16T07:34:31;1.50;;;1.03;;
13568;SDS011;6856;51.460;7.158;2022-10-16T07:37:05;1.40;;;0.97;;
13568;SDS011;6856;51.460;7.158;2022-10-16T07:39:39;1.57;;;1.10;;
13568;SDS011;6856;51.460;7.158;2022-10-16T07:42:14;1.83;;;0.90;;
13568;SDS011;6856;51.460;7.158;2022-10-16T07:44:48;1.97;;;1.07;;
13568;SDS011;6856;51.460;7.158;2022-10-16T07:47:22;1.23;;;1.00;;
13568;SDS011;6856;51.460;7.158;2022-10-16T07:49:56;4.20;;;1.03;;
13568;SDS011;6856;51.460;7.158;2022-10-16T07:52:30;1.43;;;1.07;;
13568;SDS011;6856;51.460;7.158;2022-10-16T07:55:06;1.03;;;0.93;;
13568;SDS011;6856;51.460;7.158;2022-10-16T07:57:42;1.33;;;1.00;;
13568;SDS011;6856;51.460;7.158;2022-10-16T08:00:17;1.50;;;0.80;;
13568;SDS011;6856;51.460;7.158;2022-10-16T08:02:51;2.43;;;1.03;;
13568;SDS011;6856;51.460;7.158;2022-10-16T08:05:27;1.73;;;1.03;;
13568;SDS011;6856;51.460;7.158;2022-10-16T08:08:05;2.20;;;1.03;;
13568;SDS011;6856;51.460;7.158;2022-10-16T08:10:41;1.13;;;0.87;;
13568;SDS011;6856;51.460;7.158;2022-10-16T08:13:18;2.00;;;0.87;;
13568;SDS011;6856;51.460;7.158;2022-10-16T08:15:53;1.20;;;0.73;;
13568;SDS011;6856;51.460;7.158;2022-10-16T08:18:28;0.90;;;0.80;;
13568;SDS011;6856;51.460;7.158;2022-10-16T08:21:03;1.43;;;1.03;;
13568;SDS011;6856;51.460;7.158;2022-10-16T08:23:40;2.10;;;0.90;;
13568;SDS011;6856;51.460;7.158;2022-10-16T08:26:15;1.80;;;1.03;;
13568;SDS011;6856;51.460;7.158;2022-10-16T08:28:51;1.60;;;0.77;;
13568;SDS011;6856;51.460;7.158;2022-10-16T08:31:31;0.83;;;0.80;;
13568;SDS011;6856;51.460;7.158;2022-10-16T08:34:11;2.17;;;0.90;;
13568;SDS011;6856;51.460;7.158;2022-10-16T08:36:44;2.13;;;1.10;;
13568;SDS011;6856;51.460;7.158;2022-10-16T08:39:18;0.90;;;0.80;;
13568;SDS011;6856;51.460;7.158;2022-10-16T08:42:04;0.60;;;0.60;;
13568;SDS011;6856;51.460;7.158;2022-10-16T08:45:10;0.80;;;0.80;;
13568;SDS011;6856;51.460;7.158;2022-10-16T08:48:05;1.60;;;1.03;;
13568;SDS011;6856;51.460;7.158;2022-10-16T08:50:50;0.97;;;0.60;;
13568;SDS011;6856;51.460;7.158;2022-10-16T08:53:27;0.60;;;0.60;;
13568;SDS011;6856;51.460;7.158;2022-10-16T08:56:09;3.23;;;0.90;;
13568;SDS011;6856;51.460;7.158;2022-10-16T08:58:43;2.57;;;1.03;;
13568;SDS011;6856;51.460;7.158;2022-10-16T09:01:22;1.03;;;0.77;;
13568;SDS011;6856;51.460;7.158;2022-10-16T09:04:02;1.50;;;0.80;;
13568;SDS011;6856;51.460;7.158;2022-10-16T09:07:12;2.50;;;0.80;;
13568;SDS011;6856;51.460;7.158;2022-10-16T09:09:58;2.73;;;1.00;;
13568;SDS011;6856;51.460;7.158;2022-10-16T09:12:55;1.90;;;0.70;;
13568;SDS011;6856;51.460;7.158;2022-10-16T09:15:45;1.13;;;0.70;;
13568;SDS011;6856;51.460;7.158;2022-10-16T09:18:29;0.77;;;0.60;;
13568;SDS011;6856;51.460;7.158;2022-10-16T09:21:14;1.13;;;0.70;;
13568;SDS011;6856;51.460;7.158;2022-10-16T09:23:57;0.47;;;0.47;;
13568;SDS011;6856;51.460;7.158;2022-10-16T09:26:32;1.40;;;0.80;;
13568;SDS011;6856;51.460;7.158;2022-10-16T09:29:06;1.77;;;0.77;;
13568;SDS011;6856;51.460;7.158;2022-10-16T09:31:45;1.57;;;0.90;;
13568;SDS011;6856;51.460;7.158;2022-10-16T09:34:23;0.80;;;0.70;;
13568;SDS011;6856;51.460;7.158;2022-10-16T09:37:04;1.03;;;0.53;;
13568;SDS011;6856;51.460;7.158;2022-10-16T09:39:44;0.60;;;0.50;;
13568;SDS011;6856;51.460;7.158;2022-10-16T09:42:21;0.97;;;0.60;;
13568;SDS011;6856;51.460;7.158;2022-10-16T09:45:03;1.07;;;0.70;;
13568;SDS011;6856;51.460;7.158;2022-10-16T09:47:39;2.10;;;0.90;;
13568;SDS011;6856;51.460;7.158;2022-10-16T09:50:21;0.83;;;0.57;;
13568;SDS011;6856;51.460;7.158;2022-10-16T09:53:05;2.87;;;0.90;;
13568;SDS011;6856;51.460;7.158;2022-10-16T09:55:53;1.33;;;0.60;;
13568;SDS011;6856;51.460;7.158;2022-10-16T09:58:27;2.00;;;0.80;;
13568;SDS011;6856;51.460;7.158;2022-10-16T10:01:04;1.53;;;0.60;;
13568;SDS011;6856;51.460;7.158;2022-10-16T10:03:38;1.20;;;0.57;;
13568;SDS011;6856;51.460;7.158;2022-10-16T10:06:36;1.03;;;0.50;;
13568;SDS011;6856;51.460;7.158;2022-10-16T10:09:20;4.00;;;1.10;;
13568;SDS011;6856;51.460;7.158;2022-10-16T10:11:56;2.57;;;0.90;;
13568;SDS011;6856;51.460;7.158;2022-10-16T10:14:35;0.53;;;0.50;;
13568;SDS011;6856;51.460;7.158;2022-10-16T10:17:13;1.53;;;0.73;;
13568;SDS011;6856;51.460;7.158;2022-10-16T10:19:51;1.50;;;0.57;;
13568;SDS011;6856;51.460;7.158;2022-10-16T10:22:30;2.07;;;0.60;;
13568;SDS011;6856;51.460;7.158;2022-10-16T10:25:15;1.50;;;0.70;;
13568;SDS011;6856;51.460;7.158;2022-10-16T10:28:24;1.27;;;0.60;;
13568;SDS011;6856;51.460;7.158;2022-10-16T10:31:27;2.67;;;0.70;;
13568;SDS011;6856;51.460;7.158;2022-10-16T10:34:22;3.37;;;0.70;;
13568;SDS011;6856;51.460;7.158;2022-10-16T10:37:32;2.60;;;0.90;;
13568;SDS011;6856;51.460;7.158;2022-10-16T10:40:34;0.77;;;0.60;;
13568;SDS011;6856;51.460;7.158;2022-10-16T10:43:35;0.60;;;0.60;;
13568;SDS011;6856;51.460;7.158;2022-10-16T10:46:26;1.53;;;0.50;;
13568;SDS011;6856;51.460;7.158;2022-10-16T10:49:10;2.47;;;0.70;;
13568;SDS011;6856;51.460;7.158;2022-10-16T10:52:27;4.20;;;0.67;;
13568;SDS011;6856;51.460;7.158;2022-10-16T10:55:18;0.60;;;0.40;;
13568;SDS011;6856;51.460;7.158;2022-10-16T10:58:06;1.10;;;0.50;;
13568;SDS011;6856;51.460;7.158;2022-10-16T11:01:06;0.50;;;0.50;;
13568;SDS011;6856;51.460;7.158;2022-10-16T11:03:58;1.83;;;0.60;;
13568;SDS011;6856;51.460;7.158;2022-10-16T11:07:02;0.80;;;0.43;;
13568;SDS011;6856;51.460;7.158;2022-10-16T11:09:45;1.00;;;0.70;;
13568;SDS011;6856;51.460;7.158;2022-10-16T11:12:24;0.73;;;0.37;;
13568;SDS011;6856;51.460;7.158;2022-10-16T11:15:04;0.93;;;0.50;;
13568;SDS011;6856;51.460;7.158;2022-10-16T11:17:48;0.47;;;0.47;;
13568;SDS011;6856;51.460;7.158;2022-10-16T11:20:29;1.53;;;0.57;;
13568;SDS011;6856;51.460;7.158;2022-10-16T11:23:08;0.50;;;0.50;;
13568;SDS011;6856;51.460;7.158;2022-10-16T11:25:52;1.40;;;0.60;;
13568;SDS011;6856;51.460;7.158;2022-10-16T11:28:32;0.50;;;0.50;;
13568;SDS011;6856;51.460;7.158;2022-10-16T11:31:11;1.47;;;0.47;;
13568;SDS011;6856;51.460;7.158;2022-10-16T11:33:54;1.23;;;0.70;;
13568;SDS011;6856;51.460;7.158;2022-10-16T11:36:38;2.10;;;0.40;;
13568;SDS011;6856;51.460;7.158;2022-10-16T11:39:19;0.47;;;0.40;;
13568;SDS011;6856;51.460;7.158;2022-10-16T11:41:59;0.73;;;0.40;;
13568;SDS011;6856;51.460;7.158;2022-10-16T11:44:44;0.70;;;0.50;;
13568;SDS011;6856;51.460;7.158;2022-10-16T11:47:31;1.50;;;0.60;;
13568;SDS011;6856;51.460;7.158;2022-10-16T11:50:29;1.17;;;0.50;;
13568;SDS011;6856;51.460;7.158;2022-10-16T11:53:11;2.03;;;0.80;;
13568;SDS011;6856;51.460;7.158;2022-10-16T11:55:54;0.70;;;0.50;;
13568;SDS011;6856;51.460;7.158;2022-10-16T11:58:31;0.53;;;0.40;;
13568;SDS011;6856;51.460;7.158;2022-10-16T12:01:22;1.57;;;0.60;;
13568;SDS011;6856;51.460;7.158;2022-10-16T12:04:06;0.53;;;0.40;;
13568;SDS011;6856;51.460;7.158;2022-10-16T12:06:55;0.53;;;0.33;;
13568;SDS011;6856;51.460;7.158;2022-10-16T12:09:37;2.30;;;0.50;;
13568;SDS011;6856;51.460;7.158;2022-10-16T12:12:26;0.87;;;0.57;;
13568;SDS011;6856;51.460;7.158;2022-10-16T12:15:20;0.87;;;0.50;;
13568;SDS011;6856;51.460;7.158;2022-10-16T12:18:20;1.33;;;0.57;;
13568;SDS011;6856;51.460;7.158;2022-10-16T12:20:56;1.43;;;0.47;;
13568;SDS011;6856;51.460;7.158;2022-10-16T12:23:46;0.63;;;0.47;;
13568;SDS011;6856;51.460;7.158;2022-10-16T12:26:23;1.43;;;0.60;;
13568;SDS011;6856;51.460;7.158;2022-10-16T12:29:09;0.93;;;0.60;;
13568;SDS011;6856;51.460;7.158;2022-10-16T12:31:56;1.37;;;0.50;;
13568;SDS011;6856;51.460;7.158;2022-10-16T12:34:32;1.87;;;0.60;;
13568;SDS011;6856;51.460;7.158;2022-10-16T12:37:14;1.47;;;0.50;;
13568;SDS011;6856;51.460;7.158;2022-10-16T12:39:55;0.50;;;0.40;;
13568;SDS011;6856;51.460;7.158;2022-10-16T12:42:35;0.87;;;0.60;;
13568;SDS011;6856;51.460;7.158;2022-10-16T12:45:28;1.33;;;0.60;;
13568;SDS011;6856;51.460;7.158;2022-10-16T12:48:18;0.67;;;0.57;;
13568;SDS011;6856;51.460;7.158;2022-10-16T12:51:10;1.67;;;0.80;;
13568;SDS011;6856;51.460;7.158;2022-10-16T12:53:45;1.77;;;0.87;;
13568;SDS011;6856;51.460;7.158;2022-10-16T12:56:21;3.20;;;0.93;;
13568;SDS011;6856;51.460;7.158;2022-10-16T12:59:09;2.40;;;0.50;;
13568;SDS011;6856;51.460;7.158;2022-10-16T13:02:16;0.80;;;0.53;;
13568;SDS011;6856;51.460;7.158;2022-10-16T13:05:25;1.13;;;0.67;;
13568;SDS011;6856;51.460;7.158;2022-10-16T13:08:16;0.77;;;0.60;;
13568;SDS011;6856;51.460;7.158;2022-10-16T13:11:13;2.03;;;0.80;;
13568;SDS011;6856;51.460;7.158;2022-10-16T13:14:01;0.60;;;0.60;;
13568;SDS011;6856;51.460;7.158;2022-10-16T13:17:06;0.77;;;0.50;;
13568;SDS011;6856;51.460;7.158;2022-10-16T13:19:53;0.83;;;0.60;;
13568;SDS011;6856;51.460;7.158;2022-10-16T13:22:42;1.20;;;0.60;;
13568;SDS011;6856;51.460;7.158;2022-10-16T13:25:34;0.40;;;0.40;;
13568;SDS011;6856;51.460;7.158;2022-10-16T13:28:22;2.73;;;0.40;;
13568;SDS011;6856;51.460;7.158;2022-10-16T13:31:04;0.97;;;0.47;;
13568;SDS011;6856;51.460;7.158;2022-10-16T13:33:51;1.47;;;0.50;;
13568;SDS011;6856;51.460;7.158;2022-10-16T13:36:33;0.70;;;0.40;;
13568;SDS011;6856;51.460;7.158;2022-10-16T13:39:22;0.97;;;0.60;;
13568;SDS011;6856;51.460;7.158;2022-10-16T13:42:00;0.97;;;0.70;;
13568;SDS011;6856;51.460;7.158;2022-10-16T13:44:40;0.90;;;0.43;;
13568;SDS011;6856;51.460;7.158;2022-10-16T13:47:19;2.23;;;0.60;;
13568;SDS011;6856;51.460;7.158;2022-10-16T13:49:59;1.07;;;0.50;;
13568;SDS011;6856;51.460;7.158;2022-10-16T13:52:35;0.87;;;0.50;;
13568;SDS011;6856;51.460;7.158;2022-10-16T13:55:13;2.30;;;0.60;;
13568;SDS011;6856;51.460;7.158;2022-10-16T13:57:50;0.83;;;0.50;;
13568;SDS011;6856;51.460;7.158;2022-10-16T14:00:25;0.50;;;0.40;;
13568;SDS011;6856;51.460;7.158;2022-10-16T14:03:05;1.47;;;0.37;;
13568;SDS011;6856;51.460;7.158;2022-10-16T14:05:48;1.00;;;0.40;;
13568;SDS011;6856;51.460;7.158;2022-10-16T14:08:25;1.03;;;0.60;;
13568;SDS011;6856;51.460;7.158;2022-10-16T14:11:02;1.03;;;0.60;;
13568;SDS011;6856;51.460;7.158;2022-10-16T14:13:37;2.43;;;0.60;;
13568;SDS011;6856;51.460;7.158;2022-10-16T14:16:16;0.50;;;0.37;;
13568;SDS011;6856;51.460;7.158;2022-10-16T14:18:57;0.80;;;0.40;;
13568;SDS011;6856;51.460;7.158;2022-10-16T14:21:34;1.10;;;0.60;;
13568;SDS011;6856;51.460;7.158;2022-10-16T14:24:12;1.10;;;0.60;;
13568;SDS011;6856;51.460;7.158;2022-10-16T14:26:59;1.90;;;0.80;;
13568;SDS011;6856;51.460;7.158;2022-10-16T14:29:39;1.17;;;0.60;;
13568;SDS011;6856;51.460;7.158;2022-10-16T14:32:20;1.00;;;0.53;;
13568;SDS011;6856;51.460;7.158;2022-10-16T14:34:56;1.83;;;0.70;;
13568;SDS011;6856;51.460;7.158;2022-10-16T14:37:35;0.50;;;0.50;;
13568;SDS011;6856;51.460;7.158;2022-10-16T14:40:13;0.83;;;0.63;;
13568;SDS011;6856;51.460;7.158;2022-10-16T14:42:49;1.17;;;0.50;;
13568;SDS011;6856;51.460;7.158;2022-10-16T14:45:24;0.93;;;0.67;;
13568;SDS011;6856;51.460;7.158;2022-10-16T14:48:14;1.33;;;0.50;;
13568;SDS011;6856;51.460;7.158;2022-10-16T14:50:52;0.67;;;0.50;;
13568;SDS011;6856;51.460;7.158;2022-10-16T14:53:25;2.67;;;0.50;;
13568;SDS011;6856;51.460;7.158;2022-10-16T14:56:05;3.30;;;0.70;;
13568;SDS011;6856;51.460;7.158;2022-10-16T14:58:41;0.50;;;0.50;;
13568;SDS011;6856;51.460;7.158;2022-10-16T15:01:15;2.17;;;0.70;;
13568;SDS011;6856;51.460;7.158;2022-10-16T15:03:49;0.70;;;0.60;;
13568;SDS011;6856;51.460;7.158;2022-10-16T15:06:25;0.80;;;0.53;;
13568;SDS011;6856;51.460;7.158;2022-10-16T15:08:58;0.70;;;0.50;;
13568;SDS011;6856;51.460;7.158;2022-10-16T15:11:31;0.73;;;0.40;;
13568;SDS011;6856;51.460;7.158;2022-10-16T15:14:08;1.00;;;0.60;;
13568;SDS011;6856;51.460;7.158;2022-10-16T15:16:44;1.20;;;0.53;;
13568;SDS011;6856;51.460;7.158;2022-10-16T15:19:17;1.17;;;0.60;;
13568;SDS011;6856;51.460;7.158;2022-10-16T15:21:51;1.17;;;0.60;;
13568;SDS011;6856;51.460;7.158;2022-10-16T15:24:24;0.63;;;0.50;;
13568;SDS011;6856;51.460;7.158;2022-10-16T15:26:58;2.00;;;0.63;;
13568;SDS011;6856;51.460;7.158;2022-10-16T15:29:33;0.60;;;0.60;;
13568;SDS011;6856;51.460;7.158;2022-10-16T15:32:08;2.13;;;0.70;;
13568;SDS011;6856;51.460;7.158;2022-10-16T15:34:43;2.80;;;0.80;;
13568;SDS011;6856;51.460;7.158;2022-10-16T15:37:19;3.27;;;0.60;;
13568;SDS011;6856;51.460;7.158;2022-10-16T15:39:52;1.03;;;0.47;;
13568;SDS011;6856;51.460;7.158;2022-10-16T15:42:30;0.70;;;0.50;;
13568;SDS011;6856;51.460;7.158;2022-10-16T15:45:11;0.63;;;0.50;;
13568;SDS011;6856;51.460;7.158;2022-10-16T15:47:46;0.60;;;0.60;;
13568;SDS011;6856;51.460;7.158;2022-10-16T15:50:21;1.20;;;0.60;;
13568;SDS011;6856;51.460;7.158;2022-10-16T15:52:55;1.10;;;0.63;;
13568;SDS011;6856;51.460;7.158;2022-10-16T15:55:28;1.50;;;0.70;;
13568;SDS011;6856;51.460;7.158;2022-10-16T15:58:02;2.20;;;0.83;;
13568;SDS011;6856;51.460;7.158;2022-10-16T16:00:38;1.03;;;0.70;;
13568;SDS011;6856;51.460;7.158;2022-10-16T16:03:12;2.00;;;0.83;;
13568;SDS011;6856;51.460;7.158;2022-10-16T16:05:45;1.77;;;0.67;;
13568;SDS011;6856;51.460;7.158;2022-10-16T16:08:19;1.73;;;0.90;;
13568;SDS011;6856;51.460;7.158;2022-10-16T16:10:59;1.27;;;0.90;;
13568;SDS011;6856;51.460;7.158;2022-10-16T16:13:34;1.10;;;0.80;;
13568;SDS011;6856;51.460;7.158;2022-10-16T16:16:11;1.17;;;0.80;;